Time;durP1;ratioP1;P1;durP2;ratioP2;P2;SDS_P1;SDS_P2;PMS_P1;PMS_P2;Temp;Humidity;BMP_temperature;BMP_pressure;BME280_temperature;BME280_humidity;BME280_pressure;Samples;Min_cycle;Max_cycle;Signal;HPM_P1;HPM_P2
2023/05/10 00:01:47;;;;;;;;;;;14.60;90.00;;;;;;5072175;28;19935;-35
2023/05/10 00:04:12;;;;;;;;;;;14.60;90.00;;;;;;5072081;28;19954;-35
2023/05/10 00:06:38;;;;;;;;;;;14.60;90.00;;;;;;5072110;28;19999;-34
2023/05/10 00:09:03;;;;;;;;;;;14.60;90.00;;;;;;5071948;28;19915;-35
2023/05/10 00:11:29;;;;;;;;;;;14.60;90.00;;;;;;5071908;28;20355;-33
2023/05/10 00:13:54;;;;;;;;;;;14.60;89.90;;;;;;5072025;28;19943;-34
2023/05/10 00:16:19;;;;;;;;;;;14.60;89.90;;;;;;5072274;28;19912;-32
2023/05/10 00:18:45;;;;;;;;;;;14.60;89.90;;;;;;5072200;28;19912;-35
2023/05/10 00:21:10;;;;;;;;;;;14.60;90.00;;;;;;5071952;28;20360;-34
2023/05/10 00:23:36;;;;;;;;;;;14.60;90.00;;;;;;5071936;28;19908;-35
2023/05/10 00:26:01;;;;;;;;;;;14.70;90.00;;;;;;5071961;28;19995;-34
2023/05/10 00:28:28;;;;;;;;;;;14.70;90.00;;;;;;5071785;28;20014;-35
2023/05/10 00:30:53;;;;;;;;;;;14.70;90.00;;;;;;5071815;28;19908;-35
2023/05/10 00:33:19;;;;;;;;;;;14.70;90.00;;;;;;5071958;28;19931;-33
2023/05/10 00:35:44;;;;;;;;;;;14.70;90.00;;;;;;5071651;28;19934;-36
2023/05/10 00:38:10;;;;;;;;;;;14.70;89.90;;;;;;5071797;28;19966;-33
2023/05/10 00:40:35;;;;;;;;;;;14.70;89.90;;;;;;5071532;28;19932;-35
2023/05/10 00:43:01;;;;;;;;;;;14.70;89.90;;;;;;5071675;28;19913;-33
2023/05/10 00:45:26;;;;;;;;;;;14.70;90.00;;;;;;5071674;28;20287;-35
2023/05/10 00:47:54;;;;;;;;;;;14.70;90.00;;;;;;5071613;28;19908;-33
2023/05/10 00:50:20;;;;;;;;;;;14.70;90.00;;;;;;5071657;28;19913;-33
2023/05/10 00:52:46;;;;;;;;;;;14.70;90.00;;;;;;5071556;28;19908;-35
2023/05/10 00:55:12;;;;;;;;;;;14.70;90.00;;;;;;5071605;28;19962;-35
2023/05/10 00:57:38;;;;;;;;;;;14.70;90.00;;;;;;5071551;28;19913;-35
2023/05/10 01:00:04;;;;;;;;;;;14.70;90.00;;;;;;5071481;28;19916;-35
2023/05/10 01:02:29;;;;;;;;;;;14.70;90.00;;;;;;5071379;28;19909;-34
2023/05/10 01:04:54;;;;;;;;;;;14.70;90.00;;;;;;5071430;28;19935;-35
2023/05/10 01:07:20;;;;;;;;;;;14.70;90.00;;;;;;5071804;28;19913;-34
2023/05/10 01:09:46;;;;;;;;;;;14.70;90.00;;;;;;5075226;28;20448;-35
2023/05/10 01:12:11;;;;;;;;;;;14.70;90.00;;;;;;5075278;28;19909;-33
2023/05/10 01:14:37;;;;;;;;;;;14.70;90.00;;;;;;5075281;28;19908;-35
2023/05/10 01:17:03;;;;;;;;;;;14.70;90.00;;;;;;5075146;28;19913;-34
2023/05/10 01:19:30;;;;;;;;;;;14.60;90.00;;;;;;5075488;28;19995;-34
2023/05/10 01:21:56;;;;;;;;;;;14.60;90.00;;;;;;5075189;28;20004;-34
2023/05/10 01:25:00;;;;;;;;;;;14.60;90.10;;;;;;5075259;28;20252;-33
2023/05/10 01:27:44;;;;;;;;;;;14.70;90.10;;;;;;5055530;28;19966;-35
2023/05/10 01:30:18;;;;;;;;;;;14.70;90.10;;;;;;5072548;28;19916;-34
2023/05/10 01:32:46;;;;;;;;;;;14.70;90.10;;;;;;5061309;28;19912;-34
2023/05/10 01:35:18;;;;;;;;;;;14.70;90.10;;;;;;5054955;28;19908;-35
2023/05/10 01:37:52;;;;;;;;;;;14.70;90.10;;;;;;5053446;28;19917;-40
2023/05/10 01:40:29;;;;;;;;;;;14.70;90.10;;;;;;5054820;28;19913;-35
2023/05/10 01:42:59;;;;;;;;;;;14.70;90.10;;;;;;5055253;28;19908;-35
2023/05/10 01:45:31;;;;;;;;;;;14.70;90.10;;;;;;5054662;28;19913;-35
2023/05/10 01:48:09;;;;;;;;;;;14.70;90.10;;;;;;5054632;28;19969;-35
2023/05/10 01:50:36;;;;;;;;;;;14.80;90.10;;;;;;5054528;28;19909;-35
2023/05/10 01:53:02;;;;;;;;;;;14.70;90.10;;;;;;5054647;28;19909;-35
2023/05/10 01:55:33;;;;;;;;;;;14.80;90.10;;;;;;5054481;28;19909;-35
2023/05/10 01:58:04;;;;;;;;;;;14.80;90.10;;;;;;5054831;28;19920;-35
2023/05/10 02:00:31;;;;;;;;;;;14.80;90.10;;;;;;5054313;28;19909;-34
2023/05/10 02:02:57;;;;;;;;;;;14.70;90.10;;;;;;5054395;28;20391;-35
2023/05/10 02:05:22;;;;;;;;;;;14.70;90.10;;;;;;5054563;28;19908;-34
2023/05/10 02:07:49;;;;;;;;;;;14.70;90.10;;;;;;5054218;28;19909;-36
2023/05/10 02:10:15;;;;;;;;;;;14.70;90.10;;;;;;5054095;28;19971;-35
2023/05/10 02:12:42;;;;;;;;;;;14.70;90.20;;;;;;5054196;28;20004;-34
2023/05/10 02:15:08;;;;;;;;;;;14.70;90.20;;;;;;5054215;28;19928;-35
2023/05/10 02:17:35;;;;;;;;;;;14.80;90.20;;;;;;5053993;28;20257;-34
2023/05/10 02:20:01;;;;;;;;;;;14.70;90.20;;;;;;5053213;28;19915;-34
2023/05/10 02:22:27;;;;;;;;;;;14.70;90.20;;;;;;5054020;28;20272;-35
2023/05/10 02:24:54;;;;;;;;;;;14.70;90.20;;;;;;5054086;28;20007;-34
2023/05/10 02:27:20;;;;;;;;;;;14.70;90.20;;;;;;5057525;28;19920;-33
2023/05/10 02:29:46;;;;;;;;;;;14.70;90.20;;;;;;5073892;28;19909;-35
2023/05/10 02:32:12;;;;;;;;;;;14.70;90.20;;;;;;5073853;28;20093;-35
2023/05/10 02:34:38;;;;;;;;;;;14.60;90.30;;;;;;5073795;28;20386;-35
2023/05/10 02:37:04;;;;;;;;;;;14.60;90.30;;;;;;5074014;28;19975;-35
2023/05/10 02:39:31;;;;;;;;;;;14.60;90.30;;;;;;5073722;28;19964;-34
2023/05/10 02:41:57;;;;;;;;;;;14.70;90.30;;;;;;5073801;28;19909;-35
2023/05/10 02:44:23;;;;;;;;;;;14.70;90.30;;;;;;5073587;28;19908;-34
2023/05/10 02:46:48;;;;;;;;;;;14.60;90.30;;;;;;5073624;28;19908;-35
2023/05/10 02:49:15;;;;;;;;;;;14.60;90.30;;;;;;5073502;28;20372;-34
2023/05/10 02:51:42;;;;;;;;;;;14.60;90.40;;;;;;5073789;28;19909;-35
2023/05/10 02:54:11;;;;;;;;;;;14.60;90.40;;;;;;5073412;28;19991;-34
2023/05/10 02:56:40;;;;;;;;;;;14.60;90.40;;;;;;5073576;28;20019;-36
2023/05/10 02:59:05;;;;;;;;;;;14.60;90.40;;;;;;5073405;28;19908;-35
2023/05/10 03:01:31;;;;;;;;;;;14.60;90.40;;;;;;5073178;28;19909;-33
2023/05/10 03:03:57;;;;;;;;;;;14.60;90.40;;;;;;5073281;28;19908;-34
2023/05/10 03:06:22;;;;;;;;;;;14.60;90.40;;;;;;5073302;28;20441;-34
2023/05/10 03:08:48;;;;;;;;;;;14.60;90.40;;;;;;5072979;28;19908;-35
2023/05/10 03:11:13;;;;;;;;;;;14.50;90.40;;;;;;5073088;28;19912;-33
2023/05/10 03:13:39;;;;;;;;;;;14.50;90.40;;;;;;5071657;28;20351;-35
2023/05/10 03:16:14;;;;;;;;;;;14.50;90.40;;;;;;5072770;28;20003;-34
2023/05/10 03:19:01;;;;;;;;;;;14.50;90.50;;;;;;5073005;28;20332;-35
2023/05/10 03:21:28;;;;;;;;;;;14.50;90.50;;;;;;5072857;28;19915;-34
2023/05/10 03:24:05;;;;;;;;;;;14.50;90.50;;;;;;5072753;28;19961;-35
2023/05/10 03:26:31;;;;;;;;;;;14.50;90.50;;;;;;5072790;28;19991;-33
2023/05/10 03:28:58;;;;;;;;;;;14.50;90.50;;;;;;5072301;28;19920;-34
2023/05/10 03:31:24;;;;;;;;;;;14.50;90.40;;;;;;5071408;28;19923;-33
2023/05/10 03:33:50;;;;;;;;;;;14.50;90.50;;;;;;5071522;28;19912;-33
2023/05/10 03:36:16;;;;;;;;;;;14.50;90.40;;;;;;5071305;28;19990;-32
2023/05/10 03:38:41;;;;;;;;;;;14.40;90.40;;;;;;5072308;28;20003;-33
2023/05/10 03:41:07;;;;;;;;;;;14.40;90.40;;;;;;5072581;28;19995;-36
2023/05/10 03:43:32;;;;;;;;;;;14.40;90.40;;;;;;5072541;28;20384;-40
2023/05/10 03:45:58;;;;;;;;;;;14.40;90.40;;;;;;5072398;28;19919;-34
2023/05/10 03:48:23;;;;;;;;;;;14.50;90.50;;;;;;5072365;28;19985;-34
2023/05/10 03:50:51;;;;;;;;;;;14.40;90.40;;;;;;5072338;28;19955;-35
2023/05/10 03:53:17;;;;;;;;;;;14.40;90.40;;;;;;5071025;28;20318;-34
2023/05/10 03:55:42;;;;;;;;;;;14.40;90.40;;;;;;5072232;28;19916;-34
2023/05/10 03:58:10;;;;;;;;;;;14.40;90.40;;;;;;5072372;28;20360;-34
2023/05/10 04:00:36;;;;;;;;;;;14.30;90.40;;;;;;5071988;28;20360;-34
2023/05/10 04:03:02;;;;;;;;;;;14.30;90.40;;;;;;5072204;28;19912;-34
2023/05/10 04:05:29;;;;;;;;;;;14.30;90.40;;;;;;5072417;28;19970;-35
2023/05/10 04:07:54;;;;;;;;;;;14.30;90.40;;;;;;5072124;28;19952;-34
2023/05/10 04:10:21;;;;;;;;;;;14.30;90.40;;;;;;5071965;28;19912;-33
2023/05/10 04:12:46;;;;;;;;;;;14.30;90.40;;;;;;5072237;28;19920;-34
2023/05/10 04:15:12;;;;;;;;;;;14.30;90.40;;;;;;5070695;28;20343;-33
2023/05/10 04:17:37;;;;;;;;;;;14.30;90.40;;;;;;5072260;28;19916;-35
2023/05/10 04:20:03;;;;;;;;;;;14.30;90.40;;;;;;5071972;28;19912;-34
2023/05/10 04:22:28;;;;;;;;;;;14.30;90.40;;;;;;5071948;28;19913;-35
2023/05/10 04:24:54;;;;;;;;;;;14.30;90.30;;;;;;5071853;28;19920;-35
2023/05/10 04:27:20;;;;;;;;;;;14.30;90.40;;;;;;5071741;28;19916;-35
2023/05/10 04:29:45;;;;;;;;;;;14.30;90.40;;;;;;5071798;28;19923;-35
2023/05/10 04:32:11;;;;;;;;;;;14.30;90.30;;;;;;5070579;28;19912;-35
2023/05/10 04:34:37;;;;;;;;;;;14.30;90.30;;;;;;5071739;28;19919;-35
2023/05/10 04:37:02;;;;;;;;;;;14.20;90.30;;;;;;5072008;28;19917;-34
2023/05/10 04:39:28;;;;;;;;;;;14.30;90.30;;;;;;5071744;28;19920;-35
2023/05/10 04:41:53;;;;;;;;;;;14.30;90.30;;;;;;5072000;28;20086;-34
2023/05/10 04:44:18;;;;;;;;;;;14.20;90.30;;;;;;5077966;28;19913;-35
2023/05/10 04:46:44;;;;;;;;;;;14.20;90.30;;;;;;5078318;28;20328;-34
2023/05/10 04:49:09;;;;;;;;;;;14.20;90.30;;;;;;5078783;28;19913;-34
2023/05/10 04:51:35;;;;;;;;;;;14.10;90.30;;;;;;5078334;28;19913;-35
2023/05/10 04:54:00;;;;;;;;;;;14.10;90.30;;;;;;5077177;28;19912;-35
2023/05/10 04:56:26;;;;;;;;;;;14.20;90.30;;;;;;5078358;28;19917;-37
2023/05/10 04:58:51;;;;;;;;;;;14.20;90.30;;;;;;5078375;28;19935;-34
2023/05/10 05:01:17;;;;;;;;;;;14.20;90.30;;;;;;5078189;28;20403;-34
2023/05/10 05:03:42;;;;;;;;;;;14.20;90.60;;;;;;5078144;28;19912;-35
2023/05/10 05:06:08;;;;;;;;;;;14.20;90.30;;;;;;5078187;28;19912;-35
2023/05/10 05:08:33;;;;;;;;;;;14.20;90.30;;;;;;5078182;28;19913;-35
2023/05/10 05:10:59;;;;;;;;;;;14.30;90.30;;;;;;5078038;28;19913;-35
2023/05/10 05:13:24;;;;;;;;;;;14.30;90.30;;;;;;5078331;28;19961;-34
2023/05/10 05:15:50;;;;;;;;;;;14.30;90.30;;;;;;5077927;28;19912;-35
2023/05/10 05:18:15;;;;;;;;;;;14.30;90.20;;;;;;5078057;28;19919;-35
2023/05/10 05:20:41;;;;;;;;;;;14.30;90.20;;;;;;5078192;28;19935;-35
2023/05/10 05:23:06;;;;;;;;;;;14.30;90.20;;;;;;5078042;28;19978;-35
2023/05/10 05:25:32;;;;;;;;;;;14.40;90.20;;;;;;5077992;28;19955;-34
2023/05/10 05:27:57;;;;;;;;;;;14.40;90.20;;;;;;5077696;28;20007;-35
2023/05/10 05:30:23;;;;;;;;;;;14.40;90.20;;;;;;5078111;28;19913;-34
2023/05/10 05:32:50;;;;;;;;;;;14.40;90.20;;;;;;5075865;28;21471;-40
2023/05/10 05:35:16;;;;;;;;;;;14.40;90.20;;;;;;5077912;28;19912;-37
2023/05/10 05:37:41;;;;;;;;;;;14.40;90.20;;;;;;5077722;28;20023;-35
2023/05/10 05:40:07;;;;;;;;;;;14.40;90.20;;;;;;5077842;28;19919;-35
2023/05/10 05:42:32;;;;;;;;;;;14.50;90.20;;;;;;5077918;28;19913;-35
2023/05/10 05:44:58;;;;;;;;;;;14.50;90.10;;;;;;5078004;28;20264;-35
2023/05/10 05:47:23;;;;;;;;;;;14.50;90.10;;;;;;5077784;28;19916;-34
2023/05/10 05:49:49;;;;;;;;;;;14.60;90.00;;;;;;5078205;28;19912;-35
2023/05/10 05:52:14;;;;;;;;;;;14.60;90.10;;;;;;5077751;28;19912;-34
2023/05/10 05:54:40;;;;;;;;;;;14.60;90.00;;;;;;5074507;28;20003;-35
2023/05/10 05:57:05;;;;;;;;;;;14.70;90.00;;;;;;5074544;28;20292;-34
2023/05/10 05:59:31;;;;;;;;;;;14.70;90.00;;;;;;5074601;28;19913;-34
2023/05/10 06:01:56;;;;;;;;;;;14.80;90.00;;;;;;5074744;28;19913;-34
2023/05/10 06:04:22;;;;;;;;;;;14.80;90.00;;;;;;5074643;28;20202;-35
2023/05/10 06:06:47;;;;;;;;;;;14.80;89.80;;;;;;5074700;28;20229;-36
2023/05/10 06:09:13;;;;;;;;;;;14.80;89.90;;;;;;5074267;28;19913;-36
2023/05/10 06:11:38;;;;;;;;;;;14.70;89.60;;;;;;5074281;28;20376;-38
2023/05/10 06:14:06;;;;;;;;;;;14.70;89.70;;;;;;5074348;28;19916;-36
2023/05/10 06:16:32;;;;;;;;;;;14.70;89.80;;;;;;5074362;28;19916;-36
2023/05/10 06:18:58;;;;;;;;;;;14.70;89.90;;;;;;5072996;28;20229;-36
2023/05/10 06:21:23;;;;;;;;;;;14.70;89.90;;;;;;5074189;28;19959;-35
2023/05/10 06:23:48;;;;;;;;;;;14.70;89.90;;;;;;5073974;28;20330;-36
2023/05/10 06:26:14;;;;;;;;;;;14.70;89.90;;;;;;5073985;28;19916;-36
2023/05/10 06:28:40;;;;;;;;;;;14.70;90.00;;;;;;5073757;28;19979;-36
2023/05/10 06:31:06;;;;;;;;;;;14.70;89.90;;;;;;5074093;28;19952;-36
2023/05/10 06:33:31;;;;;;;;;;;14.70;90.00;;;;;;5074054;28;19916;-35
2023/05/10 06:35:57;;;;;;;;;;;14.60;90.00;;;;;;5073871;28;19954;-37
2023/05/10 06:38:23;;;;;;;;;;;14.60;89.90;;;;;;5072472;28;19919;-36
2023/05/10 06:40:48;;;;;;;;;;;14.50;90.00;;;;;;5074001;28;19962;-38
2023/05/10 06:43:14;;;;;;;;;;;14.50;90.00;;;;;;5073984;28;19966;-36
2023/05/10 06:45:40;;;;;;;;;;;14.50;90.00;;;;;;5073627;28;19965;-37
2023/05/10 06:48:06;;;;;;;;;;;14.50;90.00;;;;;;5073666;28;20271;-35
2023/05/10 06:50:32;;;;;;;;;;;14.40;90.00;;;;;;5073470;28;20015;-35
2023/05/10 06:52:57;;;;;;;;;;;14.40;90.00;;;;;;5073799;28;19919;-35
2023/05/10 06:55:23;;;;;;;;;;;14.40;90.10;;;;;;5073576;28;20182;-34
2023/05/10 06:57:49;;;;;;;;;;;14.50;90.10;;;;;;5072023;28;19916;-35
2023/05/10 07:00:14;;;;;;;;;;;14.50;90.10;;;;;;5073488;28;20014;-34
2023/05/10 07:02:40;;;;;;;;;;;14.50;90.10;;;;;;5073547;28;20285;-35
2023/05/10 07:05:05;;;;;;;;;;;14.50;90.00;;;;;;5071897;28;19937;-34
2023/05/10 07:07:31;;;;;;;;;;;14.60;90.00;;;;;;5073079;28;19920;-35
2023/05/10 07:09:57;;;;;;;;;;;14.50;90.00;;;;;;5073084;28;19916;-35
2023/05/10 07:12:23;;;;;;;;;;;14.60;90.00;;;;;;5073115;28;20368;-36
2023/05/10 07:14:48;;;;;;;;;;;14.60;90.00;;;;;;5073027;28;19919;-35
2023/05/10 07:17:14;;;;;;;;;;;14.70;90.00;;;;;;5072919;28;19996;-35
2023/05/10 07:19:39;;;;;;;;;;;14.70;90.00;;;;;;5073104;28;19912;-36
2023/05/10 07:22:05;;;;;;;;;;;14.80;90.00;;;;;;5073021;28;19912;-35
2023/05/10 07:24:33;;;;;;;;;;;14.80;90.00;;;;;;5073032;28;19919;-34
2023/05/10 07:26:58;;;;;;;;;;;14.90;89.90;;;;;;5072840;28;19912;-35
2023/05/10 07:29:24;;;;;;;;;;;14.90;89.80;;;;;;5072768;28;19935;-33
2023/05/10 07:31:49;;;;;;;;;;;14.90;89.80;;;;;;5072655;28;19947;-35
2023/05/10 07:34:15;;;;;;;;;;;14.90;89.70;;;;;;5072768;28;19921;-34
2023/05/10 07:36:40;;;;;;;;;;;15.00;89.70;;;;;;5072620;28;19916;-36
2023/05/10 07:39:06;;;;;;;;;;;15.10;89.70;;;;;;5072747;28;19913;-37
2023/05/10 07:41:32;;;;;;;;;;;15.10;89.60;;;;;;5071184;28;20029;-36
2023/05/10 07:43:57;;;;;;;;;;;15.30;89.70;;;;;;5072544;28;19921;-36
2023/05/10 07:46:23;;;;;;;;;;;15.30;89.40;;;;;;5072484;28;20287;-33
2023/05/10 07:48:48;;;;;;;;;;;15.40;89.30;;;;;;5072388;28;19916;-35
2023/05/10 07:51:14;;;;;;;;;;;15.40;89.00;;;;;;5072255;28;20023;-35
2023/05/10 07:53:39;;;;;;;;;;;15.40;89.10;;;;;;5072590;28;19938;-36
2023/05/10 07:56:22;;;;;;;;;;;15.50;89.10;;;;;;5072283;28;20372;-35
2023/05/10 07:58:47;;;;;;;;;;;15.50;89.00;;;;;;5072157;28;19920;-34
2023/05/10 08:01:12;;;;;;;;;;;15.60;88.90;;;;;;5072337;28;20397;-35
2023/05/10 08:03:38;;;;;;;;;;;15.60;88.80;;;;;;5072325;28;20034;-36
2023/05/10 08:06:04;;;;;;;;;;;15.60;88.70;;;;;;5072227;28;19923;-35
2023/05/10 08:08:29;;;;;;;;;;;15.70;88.70;;;;;;5072444;28;20010;-36
2023/05/10 08:10:54;;;;;;;;;;;15.60;88.70;;;;;;5072210;28;20364;-48
2023/05/10 08:13:21;;;;;;;;;;;15.70;88.80;;;;;;5072283;28;19919;-38
2023/05/10 08:15:47;;;;;;;;;;;15.70;88.70;;;;;;5072108;28;19912;-33
2023/05/10 08:18:12;;;;;;;;;;;15.80;88.30;;;;;;5071642;28;19920;-34
2023/05/10 08:20:38;;;;;;;;;;;15.80;88.00;;;;;;5071891;28;19995;-33
2023/05/10 08:23:03;;;;;;;;;;;15.80;88.20;;;;;;5072006;28;19924;-34
2023/05/10 08:25:29;;;;;;;;;;;15.80;88.10;;;;;;5071795;28;20237;-35
2023/05/10 08:27:54;;;;;;;;;;;15.90;88.20;;;;;;5071699;28;19921;-34
2023/05/10 08:30:20;;;;;;;;;;;16.00;88.00;;;;;;5071663;28;19916;-37
2023/05/10 08:32:45;;;;;;;;;;;16.00;87.70;;;;;;5071964;28;20471;-33
2023/05/10 08:35:11;;;;;;;;;;;15.90;87.60;;;;;;5071764;28;19952;-35
2023/05/10 08:37:36;;;;;;;;;;;15.90;87.80;;;;;;5071558;28;20307;-35
2023/05/10 08:40:02;;;;;;;;;;;15.90;87.90;;;;;;5071839;28;19999;-35
2023/05/10 08:42:29;;;;;;;;;;;15.90;87.80;;;;;;5071664;28;20008;-35
2023/05/10 08:44:56;;;;;;;;;;;15.80;87.40;;;;;;5072018;28;19944;-35
2023/05/10 08:47:22;;;;;;;;;;;15.80;87.40;;;;;;5070376;28;19919;-37
2023/05/10 08:49:51;;;;;;;;;;;15.70;87.40;;;;;;5071450;28;19995;-35
2023/05/10 08:52:17;;;;;;;;;;;15.70;87.20;;;;;;5071312;28;19962;-35
2023/05/10 08:54:43;;;;;;;;;;;15.60;87.30;;;;;;5071750;28;19916;-36
2023/05/10 08:57:09;;;;;;;;;;;15.70;87.30;;;;;;5071587;28;20284;-37
2023/05/10 08:59:35;;;;;;;;;;;15.70;87.20;;;;;;5071814;28;19922;-35
2023/05/10 09:02:01;;;;;;;;;;;15.90;87.10;;;;;;5071586;28;20327;-38
2023/05/10 09:04:27;;;;;;;;;;;15.90;86.30;;;;;;5070221;28;19936;-36
2023/05/10 09:06:53;;;;;;;;;;;16.00;85.90;;;;;;5071586;28;19960;-35
2023/05/10 09:09:19;;;;;;;;;;;16.00;85.10;;;;;;5071434;28;19943;-35
2023/05/10 09:11:45;;;;;;;;;;;15.90;85.20;;;;;;5071652;28;19912;-34
2023/05/10 09:14:12;;;;;;;;;;;15.90;85.70;;;;;;5071731;28;19920;-34
2023/05/10 09:16:38;;;;;;;;;;;15.90;85.80;;;;;;5069904;28;19916;-35
2023/05/10 09:19:03;;;;;;;;;;;16.00;85.80;;;;;;5071586;28;19970;-36
2023/05/10 09:21:30;;;;;;;;;;;16.10;85.50;;;;;;5071331;28;19913;-37
2023/05/10 09:23:55;;;;;;;;;;;16.20;84.90;;;;;;5071707;28;19940;-36
2023/05/10 09:26:24;;;;;;;;;;;16.20;84.60;;;;;;5071349;28;20372;-37
2023/05/10 09:28:53;;;;;;;;;;;16.30;85.00;;;;;;5072316;28;19920;-36
2023/05/10 09:31:19;;;;;;;;;;;16.40;84.70;;;;;;5075327;28;19919;-36
2023/05/10 09:33:45;;;;;;;;;;;16.50;84.20;;;;;;5075256;28;20283;-35
2023/05/10 09:36:11;;;;;;;;;;;16.60;83.20;;;;;;5075109;28;19916;-35
2023/05/10 09:38:47;;;;;;;;;;;16.60;82.40;;;;;;5074929;28;20431;-35
2023/05/10 09:41:17;;;;;;;;;;;16.50;82.70;;;;;;5074979;28;20391;-36
2023/05/10 09:43:42;;;;;;;;;;;16.50;82.40;;;;;;5075100;28;19916;-36
2023/05/10 09:46:08;;;;;;;;;;;16.60;82.80;;;;;;5073684;28;19938;-34
2023/05/10 09:48:34;;;;;;;;;;;16.70;83.10;;;;;;5074744;28;19955;-34
2023/05/10 09:51:00;;;;;;;;;;;16.70;82.50;;;;;;5073306;28;19916;-36
2023/05/10 09:53:25;;;;;;;;;;;16.70;81.50;;;;;;5074984;28;19918;-36
2023/05/10 09:55:51;;;;;;;;;;;16.60;80.70;;;;;;5074585;28;20342;-37
2023/05/10 09:58:17;;;;;;;;;;;16.50;80.10;;;;;;5074635;28;19914;-35
2023/05/10 10:00:43;;;;;;;;;;;16.50;80.60;;;;;;5074590;28;19957;-36
2023/05/10 10:03:14;;;;;;;;;;;16.40;80.00;;;;;;5074607;28;20026;-35
2023/05/10 10:05:40;;;;;;;;;;;16.40;80.50;;;;;;5074608;28;19919;-35
2023/05/10 10:08:06;;;;;;;;;;;16.40;80.60;;;;;;5074418;28;19935;-35
2023/05/10 10:10:32;;;;;;;;;;;16.50;80.60;;;;;;5074384;28;19912;-35
2023/05/10 10:12:58;;;;;;;;;;;16.50;80.80;;;;;;5073131;28;19919;-40
2023/05/10 10:15:24;;;;;;;;;;;16.60;81.00;;;;;;5074482;28;20287;-33
2023/05/10 10:17:50;;;;;;;;;;;16.70;81.00;;;;;;5074373;28;19917;-35
2023/05/10 10:20:16;;;;;;;;;;;16.60;80.80;;;;;;5074515;28;20257;-36
2023/05/10 10:22:43;;;;;;;;;;;16.60;80.70;;;;;;5073089;28;19931;-35
2023/05/10 10:25:10;;;;;;;;;;;16.60;80.60;;;;;;5074296;28;20007;-35
2023/05/10 10:27:36;;;;;;;;;;;16.50;80.70;;;;;;5074502;28;19923;-35
2023/05/10 10:30:06;;;;;;;;;;;16.50;81.00;;;;;;5074258;28;19916;-37
2023/05/10 10:32:46;;;;;;;;;;;16.50;81.20;;;;;;5074125;28;19916;-35
2023/05/10 10:35:12;;;;;;;;;;;16.60;81.20;;;;;;5074083;28;19915;-35
2023/05/10 10:37:42;;;;;;;;;;;16.70;81.90;;;;;;5073874;28;19912;-34
2023/05/10 10:40:25;;;;;;;;;;;16.70;81.00;;;;;;5073469;28;19908;-36
2023/05/10 10:42:51;;;;;;;;;;;16.70;80.20;;;;;;5074082;28;19908;-35
2023/05/10 10:45:16;;;;;;;;;;;16.70;80.70;;;;;;5073725;28;20407;-36
2023/05/10 10:47:43;;;;;;;;;;;16.80;80.40;;;;;;5074096;28;19948;-35
2023/05/10 10:50:09;;;;;;;;;;;16.90;80.00;;;;;;5073828;28;20232;-35
2023/05/10 10:52:36;;;;;;;;;;;17.00;80.00;;;;;;5073595;28;20328;-34
2023/05/10 10:55:12;;;;;;;;;;;17.10;79.40;;;;;;5073775;28;19909;-36
2023/05/10 10:57:41;;;;;;;;;;;17.20;79.50;;;;;;5073514;28;19913;-35
2023/05/10 11:00:19;;;;;;;;;;;17.30;79.50;;;;;;5072221;28;19909;-35
2023/05/10 11:02:48;;;;;;;;;;;17.40;77.80;;;;;;5073719;28;19952;-34
2023/05/10 11:05:29;;;;;;;;;;;17.40;77.50;;;;;;5073469;28;19912;-34
2023/05/10 11:07:58;;;;;;;;;;;17.30;77.60;;;;;;5072384;28;19912;-35
2023/05/10 11:10:24;;;;;;;;;;;17.30;78.10;;;;;;5073291;28;19920;-35
2023/05/10 11:12:53;;;;;;;;;;;17.30;78.00;;;;;;5073294;28;19912;-35
2023/05/10 11:15:19;;;;;;;;;;;17.30;78.20;;;;;;5072018;28;19952;-37
2023/05/10 11:17:47;;;;;;;;;;;17.40;78.30;;;;;;5073370;28;19968;-36
2023/05/10 11:20:14;;;;;;;;;;;17.50;77.80;;;;;;5073319;28;19908;-35
2023/05/10 11:22:50;;;;;;;;;;;17.50;77.40;;;;;;5073277;28;19916;-35
2023/05/10 11:25:16;;;;;;;;;;;17.60;77.80;;;;;;5073109;28;20296;-35
2023/05/10 11:27:41;;;;;;;;;;;17.70;77.70;;;;;;5072912;28;19916;-35
2023/05/10 11:30:07;;;;;;;;;;;17.80;77.30;;;;;;5072997;28;19909;-36
2023/05/10 11:32:33;;;;;;;;;;;17.80;77.10;;;;;;5073604;28;19944;-35
2023/05/10 11:34:58;;;;;;;;;;;17.90;76.90;;;;;;5072835;28;19915;-35
2023/05/10 11:37:24;;;;;;;;;;;18.00;76.20;;;;;;5072798;28;19923;-37
2023/05/10 11:39:49;;;;;;;;;;;18.00;76.40;;;;;;5072837;28;19916;-35
2023/05/10 11:42:15;;;;;;;;;;;18.00;76.30;;;;;;5072784;28;19915;-35
2023/05/10 11:44:41;;;;;;;;;;;18.00;76.20;;;;;;5072689;28;19913;-35
2023/05/10 11:47:07;;;;;;;;;;;18.10;75.90;;;;;;5072993;28;19914;-34
2023/05/10 11:49:32;;;;;;;;;;;18.10;75.70;;;;;;5072658;28;19912;-35
2023/05/10 11:52:05;;;;;;;;;;;18.20;75.00;;;;;;5072132;28;20027;-35
2023/05/10 11:54:31;;;;;;;;;;;18.20;75.00;;;;;;5071263;28;19918;-35
2023/05/10 11:56:56;;;;;;;;;;;18.20;75.10;;;;;;5072501;28;19912;-34
2023/05/10 11:59:22;;;;;;;;;;;18.10;74.30;;;;;;5072647;28;19909;-42
2023/05/10 12:01:48;;;;;;;;;;;18.10;74.80;;;;;;5072555;28;19987;-34
2023/05/10 12:04:13;;;;;;;;;;;18.10;74.50;;;;;;5072713;28;19916;-35
2023/05/10 12:06:40;;;;;;;;;;;18.10;74.90;;;;;;5072500;28;20379;-34
2023/05/10 12:09:07;;;;;;;;;;;18.10;75.10;;;;;;5072434;28;19909;-34
2023/05/10 12:11:36;;;;;;;;;;;18.10;75.30;;;;;;5072525;28;20363;-36
2023/05/10 12:14:03;;;;;;;;;;;18.10;74.60;;;;;;5072738;28;19908;-35
2023/05/10 12:16:29;;;;;;;;;;;18.00;73.80;;;;;;5072836;28;19913;-36
2023/05/10 12:18:56;;;;;;;;;;;17.90;75.10;;;;;;5072566;28;20345;-36
2023/05/10 12:21:22;;;;;;;;;;;18.00;74.60;;;;;;5072178;28;19908;-36
2023/05/10 12:23:52;;;;;;;;;;;18.10;74.60;;;;;;5070945;28;19991;-36
2023/05/10 12:26:18;;;;;;;;;;;18.30;74.70;;;;;;5072178;28;20179;-36
2023/05/10 12:28:44;;;;;;;;;;;18.40;74.30;;;;;;5072049;28;20400;-38
2023/05/10 12:31:09;;;;;;;;;;;18.50;74.50;;;;;;5072132;28;20007;-36
2023/05/10 12:33:36;;;;;;;;;;;18.60;74.50;;;;;;5072119;28;19947;-35
2023/05/10 12:36:02;;;;;;;;;;;18.70;74.20;;;;;;5072171;28;20003;-36
2023/05/10 12:38:29;;;;;;;;;;;18.90;74.20;;;;;;5071957;28;19912;-37
2023/05/10 12:40:55;;;;;;;;;;;19.00;74.30;;;;;;5072133;28;19912;-38
2023/05/10 12:43:20;;;;;;;;;;;19.00;73.00;;;;;;5072088;28;19915;-36
2023/05/10 12:45:48;;;;;;;;;;;19.00;73.10;;;;;;5071974;28;20335;-36
2023/05/10 12:48:14;;;;;;;;;;;18.90;72.80;;;;;;5071020;28;20549;-37
2023/05/10 12:50:40;;;;;;;;;;;18.90;73.10;;;;;;5070814;28;20036;-36
2023/05/10 12:53:05;;;;;;;;;;;18.90;72.80;;;;;;5072021;28;19995;-36
2023/05/10 12:55:30;;;;;;;;;;;18.90;72.20;;;;;;5072156;28;19908;-39
2023/05/10 12:57:56;;;;;;;;;;;19.00;72.50;;;;;;5071773;28;20016;-36
2023/05/10 13:00:22;;;;;;;;;;;19.00;72.70;;;;;;5071833;28;19908;-36
2023/05/10 13:02:47;;;;;;;;;;;19.20;72.70;;;;;;5071784;28;19919;-36
2023/05/10 13:05:13;;;;;;;;;;;19.30;72.40;;;;;;5074056;28;20356;-37
2023/05/10 13:07:38;;;;;;;;;;;19.30;72.00;;;;;;5075783;28;20365;-37
2023/05/10 13:10:05;;;;;;;;;;;19.30;72.30;;;;;;5075557;28;19912;-37
2023/05/10 13:12:30;;;;;;;;;;;19.50;72.50;;;;;;5075910;28;19955;-36
2023/05/10 13:14:56;;;;;;;;;;;19.60;72.40;;;;;;5075640;28;19943;-35
2023/05/10 13:17:21;;;;;;;;;;;19.70;72.30;;;;;;5075569;28;20360;-37
2023/05/10 13:19:47;;;;;;;;;;;19.80;72.20;;;;;;5075901;28;20033;-36
2023/05/10 13:22:12;;;;;;;;;;;19.80;71.60;;;;;;5075426;28;19962;-37
2023/05/10 13:24:38;;;;;;;;;;;19.80;71.30;;;;;;5075638;28;19915;-37
2023/05/10 13:27:03;;;;;;;;;;;19.80;70.00;;;;;;5075437;28;19929;-38
2023/05/10 13:29:29;;;;;;;;;;;19.80;70.90;;;;;;5075296;28;19921;-37
2023/05/10 13:31:54;;;;;;;;;;;19.80;71.10;;;;;;5075559;28;19936;-38
2023/05/10 13:34:20;;;;;;;;;;;19.70;71.30;;;;;;5075314;28;20021;-35
2023/05/10 13:36:46;;;;;;;;;;;19.60;71.30;;;;;;5075350;28;19919;-36
2023/05/10 13:39:11;;;;;;;;;;;19.60;71.60;;;;;;5075447;28;20356;-38
2023/05/10 13:41:37;;;;;;;;;;;19.50;71.00;;;;;;5075099;28;19916;-36
2023/05/10 13:44:03;;;;;;;;;;;19.50;71.70;;;;;;5075072;28;20000;-35
2023/05/10 13:46:29;;;;;;;;;;;19.40;72.00;;;;;;5074927;28;19913;-34
2023/05/10 13:48:55;;;;;;;;;;;19.40;71.60;;;;;;5075035;28;20323;-36
2023/05/10 13:51:20;;;;;;;;;;;19.40;71.20;;;;;;5074812;28;19908;-35
2023/05/10 13:53:46;;;;;;;;;;;19.40;71.00;;;;;;5074782;28;19908;-35
2023/05/10 13:56:12;;;;;;;;;;;19.30;71.20;;;;;;5074709;28;19915;-38
2023/05/10 13:58:38;;;;;;;;;;;19.10;71.90;;;;;;5074663;28;20007;-43
2023/05/10 14:01:04;;;;;;;;;;;19.00;72.10;;;;;;5075063;28;19913;-36
2023/05/10 14:03:30;;;;;;;;;;;18.80;72.30;;;;;;5074610;28;19916;-36
2023/05/10 14:05:56;;;;;;;;;;;18.50;72.60;;;;;;5074772;28;19996;-37
2023/05/10 14:08:22;;;;;;;;;;;18.30;73.30;;;;;;5074740;28;19936;-36
2023/05/10 14:10:48;;;;;;;;;;;18.00;73.90;;;;;;5074389;28;19970;-34
2023/05/10 14:13:14;;;;;;;;;;;17.80;74.30;;;;;;5074545;28;19958;-38